Time;durP1;ratioP1;P1;durP2;ratioP2;P2;SDS_P1;SDS_P2;PMS_P1;PMS_P2;Temp;Humidity;BMP_temperature;BMP_pressure;BME280_temperature;BME280_humidity;BME280_pressure;Samples;Min_cycle;Max_cycle;Signal;HPM_P1;HPM_P2
2024/01/11 00:01:13;;;;;;;0.70;0.70;;;-4.40;99.90;;;;;;4387741;32;20427;-77
2024/01/11 00:03:39;;;;;;;0.90;0.90;;;-4.40;99.90;;;;;;4391155;32;20074;-77
2024/01/11 00:06:05;;;;;;;1.37;1.25;;;-4.30;99.90;;;;;;4385737;32;20070;-78
2024/01/11 00:08:30;;;;;;;4.12;2.33;;;-4.30;99.90;;;;;;4390661;32;20083;-78
2024/01/11 00:10:56;;;;;;;0.93;0.93;;;-4.30;99.90;;;;;;4390012;32;20514;-78
2024/01/11 00:13:27;;;;;;;0.50;0.50;;;-4.30;99.90;;;;;;4387314;32;20078;-77
2024/01/11 00:15:53;;;;;;;2.25;2.05;;;-4.50;99.90;;;;;;4387108;32;20094;-77
2024/01/11 00:18:19;;;;;;;0.70;0.70;;;-4.50;99.90;;;;;;4383055;32;20077;-77
2024/01/11 00:20:44;;;;;;;0.88;0.88;;;-4.40;99.90;;;;;;4387299;32;20073;-77
2024/01/11 00:23:09;;;;;;;1.35;1.25;;;-4.40;99.90;;;;;;4382218;32;20070;-77
2024/01/11 00:25:35;;;;;;;2.12;1.15;;;-4.30;99.90;;;;;;4387145;32;20442;-78
2024/01/11 00:28:02;;;;;;;8.15;2.85;;;-4.40;99.90;;;;;;4385684;32;20083;-77
2024/01/11 00:30:27;;;;;;;1.17;1.15;;;-4.40;99.90;;;;;;4382628;32;20523;-78
2024/01/11 00:32:53;;;;;;;1.50;1.40;;;-4.40;99.90;;;;;;4386388;32;20066;-78
2024/01/11 00:35:18;;;;;;;2.65;1.42;;;-4.50;99.90;;;;;;4384472;32;20137;-77
2024/01/11 00:37:45;;;;;;;1.25;1.25;;;-4.60;99.90;;;;;;4385048;32;20427;-77
2024/01/11 00:40:11;;;;;;;0.93;0.93;;;-4.60;99.90;;;;;;4383095;32;20090;-77
2024/01/11 00:42:36;;;;;;;0.62;0.62;;;-4.60;99.90;;;;;;4389840;32;20083;-77
2024/01/11 00:45:02;;;;;;;0.73;0.73;;;-4.60;99.90;;;;;;4382350;32;20079;-77
2024/01/11 00:47:28;;;;;;;1.30;1.08;;;-4.50;99.90;;;;;;4381088;32;20058;-77
2024/01/11 00:49:53;;;;;;;0.60;0.60;;;-4.60;99.90;;;;;;4383693;32;20551;-78
2024/01/11 00:52:19;;;;;;;10.32;2.25;;;-4.70;99.90;;;;;;4383227;32;20062;-78
2024/01/11 00:54:44;;;;;;;1.15;1.15;;;-4.70;99.90;;;;;;4384820;32;20505;-77
2024/01/11 00:57:10;;;;;;;0.80;0.80;;;-4.60;99.90;;;;;;4391173;32;20070;-78
2024/01/11 00:59:35;;;;;;;0.60;0.60;;;-4.60;99.90;;;;;;4386648;32;20071;-77
2024/01/11 01:02:01;;;;;;;0.88;0.88;;;-4.70;99.90;;;;;;4390960;32;20085;-78
2024/01/11 01:04:27;;;;;;;0.52;0.52;;;-4.70;99.90;;;;;;4386693;32;20145;-78
2024/01/11 01:06:53;;;;;;;0.60;0.60;;;-4.80;99.90;;;;;;4392392;32;20078;-78
2024/01/11 01:09:18;;;;;;;0.62;0.62;;;-4.90;99.90;;;;;;4386106;32;20078;-77
2024/01/11 01:11:44;;;;;;;0.60;0.60;;;-5.00;99.90;;;;;;4385986;32;20322;-78
2024/01/11 01:14:09;;;;;;;0.60;0.60;;;-5.00;99.90;;;;;;4387233;32;20105;-78
2024/01/11 01:16:35;;;;;;;1.17;1.08;;;-5.00;99.90;;;;;;4385915;32;20079;-79
2024/01/11 01:19:00;;;;;;;2.75;2.47;;;-5.00;99.90;;;;;;4384640;32;20071;-78
2024/01/11 01:21:26;;;;;;;2.53;1.50;;;-5.10;99.90;;;;;;4385143;32;20066;-78
2024/01/11 01:23:51;;;;;;;1.40;1.27;;;-5.00;99.90;;;;;;4385856;32;20596;-78
2024/01/11 01:26:17;;;;;;;3.90;1.92;;;-5.10;99.90;;;;;;4386713;32;20104;-78
2024/01/11 01:28:43;;;;;;;0.40;0.40;;;-5.20;99.90;;;;;;4385936;32;20066;-78
2024/01/11 01:31:10;;;;;;;0.40;0.40;;;-5.40;99.90;;;;;;4387322;32;20069;-79
2024/01/11 01:33:35;;;;;;;0.60;0.60;;;-5.40;99.90;;;;;;4384900;32;20062;-78
2024/01/11 01:36:01;;;;;;;0.55;0.55;;;-5.40;99.90;;;;;;4388432;32;20529;-78
2024/01/11 01:38:26;;;;;;;2.10;1.92;;;-5.40;99.90;;;;;;4384722;32;20107;-77
2024/01/11 01:40:52;;;;;;;0.60;0.60;;;-5.30;99.90;;;;;;4385934;32;20079;-78
2024/01/11 01:43:17;;;;;;;6.03;3.15;;;-5.30;99.90;;;;;;4387394;32;20077;-78
2024/01/11 01:45:43;;;;;;;0.40;0.40;;;-5.50;99.90;;;;;;4384701;32;20099;-78
2024/01/11 01:48:08;;;;;;;0.85;0.85;;;-5.40;99.90;;;;;;4383606;32;20066;-77
2024/01/11 01:50:34;;;;;;;2.08;1.75;;;-5.40;99.90;;;;;;4381687;32;20544;-77
2024/01/11 01:53:00;;;;;;;0.60;0.60;;;-5.30;99.90;;;;;;4384679;32;20070;-78
2024/01/11 01:55:28;;;;;;;0.80;0.80;;;-5.30;99.90;;;;;;4388247;32;20432;-78
2024/01/11 01:57:54;;;;;;;0.62;0.60;;;-5.20;99.90;;;;;;4382881;32;20192;-78
2024/01/11 02:00:19;;;;;;;4.03;2.55;;;-5.30;99.90;;;;;;4383558;32;20074;-78
2024/01/11 02:02:49;;;;;;;0.50;0.50;;;-5.30;99.90;;;;;;4386990;32;20066;-78
2024/01/11 02:05:16;;;;;;;0.60;0.60;;;-5.40;99.90;;;;;;4389215;32;20079;-78
2024/01/11 02:07:42;;;;;;;1.65;1.50;;;-5.40;99.90;;;;;;4384136;32;20483;-78
2024/01/11 02:10:11;;;;;;;0.50;0.50;;;-5.30;99.90;;;;;;4386114;32;20058;-78
2024/01/11 02:12:37;;;;;;;2.25;1.95;;;-5.30;99.90;;;;;;4383976;32;20087;-77
2024/01/11 02:15:03;;;;;;;0.88;0.88;;;-5.20;99.90;;;;;;4388734;32;20095;-78
2024/01/11 02:17:31;;;;;;;0.50;0.50;;;-5.20;99.90;;;;;;4385157;32;20121;-76
2024/01/11 02:19:56;;;;;;;0.77;0.77;;;-5.20;99.90;;;;;;4380571;32;20086;-77
2024/01/11 02:22:27;;;;;;;0.43;0.43;;;-5.30;99.90;;;;;;4385258;32;20065;-78
2024/01/11 02:24:53;;;;;;;0.70;0.70;;;-5.20;99.90;;;;;;4384501;32;20079;-77
2024/01/11 02:27:18;;;;;;;0.60;0.60;;;-5.10;99.90;;;;;;4384945;32;20122;-78
2024/01/11 02:29:44;;;;;;;1.48;1.37;;;-5.00;99.90;;;;;;4383395;32;20566;-78
2024/01/11 02:32:09;;;;;;;0.45;0.45;;;-5.00;99.90;;;;;;4383541;32;20074;-78
2024/01/11 02:34:35;;;;;;;0.40;0.40;;;-5.10;99.90;;;;;;4384009;32;20412;-78
2024/01/11 02:37:01;;;;;;;1.05;1.00;;;-5.10;99.90;;;;;;4384876;32;20146;-78
2024/01/11 02:39:26;;;;;;;0.73;0.73;;;-5.00;99.90;;;;;;4386333;32;20070;-79
2024/01/11 02:41:57;;;;;;;1.02;1.02;;;-5.00;99.90;;;;;;4383078;32;20090;-77
2024/01/11 02:44:23;;;;;;;1.05;1.05;;;-5.10;99.90;;;;;;4384361;32;20498;-78
2024/01/11 02:46:48;;;;;;;1.42;1.33;;;-5.10;99.90;;;;;;4387764;32;20065;-78
2024/01/11 02:49:14;;;;;;;0.60;0.60;;;-5.10;99.90;;;;;;4387506;32;20075;-78
2024/01/11 02:51:40;;;;;;;0.80;0.80;;;-5.10;99.90;;;;;;4383989;32;20396;-78
2024/01/11 02:54:05;;;;;;;0.43;0.43;;;-5.00;99.90;;;;;;4383636;32;20985;-78
2024/01/11 02:56:31;;;;;;;0.65;0.65;;;-5.00;99.90;;;;;;4387092;32;20090;-78
2024/01/11 02:58:56;;;;;;;0.70;0.70;;;-4.90;99.90;;;;;;4388153;32;20062;-77
2024/01/11 03:01:22;;;;;;;2.47;1.70;;;-4.90;99.90;;;;;;4382124;32;20078;-78
2024/01/11 03:03:47;;;;;;;0.50;0.50;;;-4.90;99.90;;;;;;4380979;32;20120;-78
2024/01/11 03:06:14;;;;;;;0.50;0.50;;;-5.00;99.90;;;;;;4383254;32;20531;-77
2024/01/11 03:08:39;;;;;;;0.47;0.47;;;-5.10;99.90;;;;;;4385773;32;20070;-78
2024/01/11 03:11:05;;;;;;;5.35;1.45;;;-5.20;99.90;;;;;;4386441;32;20098;-77
2024/01/11 03:13:31;;;;;;;0.50;0.50;;;-5.10;99.90;;;;;;4385836;32;20081;-78
2024/01/11 03:15:57;;;;;;;0.40;0.40;;;-5.20;99.90;;;;;;4387138;32;20180;-78
2024/01/11 03:18:22;;;;;;;1.08;1.08;;;-5.20;99.90;;;;;;4384529;32;20553;-78
2024/01/11 03:20:49;;;;;;;0.80;0.80;;;-5.20;99.90;;;;;;4383093;32;20125;-78
2024/01/11 03:23:14;;;;;;;1.02;0.98;;;-5.10;99.90;;;;;;4385680;32;20078;-78
2024/01/11 03:25:40;;;;;;;0.85;0.85;;;-5.00;99.90;;;;;;4388352;32;20182;-78
2024/01/11 03:28:05;;;;;;;1.85;1.48;;;-5.00;99.90;;;;;;4386524;32;20071;-78
2024/01/11 03:30:31;;;;;;;0.40;0.40;;;-5.00;99.90;;;;;;4387823;32;20086;-78
2024/01/11 03:32:57;;;;;;;0.70;0.70;;;-5.00;99.90;;;;;;4387655;32;20527;-78
2024/01/11 03:35:23;;;;;;;0.50;0.50;;;-5.10;99.90;;;;;;4387331;32;20521;-77
2024/01/11 03:37:48;;;;;;;7.82;1.25;;;-5.20;99.90;;;;;;4388172;32;20121;-77
2024/01/11 03:40:14;;;;;;;1.15;1.12;;;-5.20;99.90;;;;;;4384021;32;20725;-76
2024/01/11 03:42:41;;;;;;;0.70;0.70;;;-5.20;99.90;;;;;;4389071;32;20090;-77
2024/01/11 03:45:07;;;;;;;0.50;0.50;;;-5.20;99.90;;;;;;4385751;32;20066;-76
2024/01/11 03:47:32;;;;;;;0.47;0.47;;;-5.20;99.90;;;;;;4385427;32;20083;-77
2024/01/11 03:49:58;;;;;;;0.82;0.82;;;-5.20;99.90;;;;;;4386380;32;20166;-77
2024/01/11 03:52:23;;;;;;;1.15;1.05;;;-5.30;99.90;;;;;;4385612;32;20121;-77
2024/01/11 03:54:48;;;;;;;0.40;0.40;;;-5.30;99.90;;;;;;4390921;32;20538;-76
2024/01/11 03:57:15;;;;;;;0.40;0.40;;;-5.20;99.90;;;;;;4389123;32;20078;-77
2024/01/11 03:59:41;;;;;;;0.50;0.50;;;-5.20;99.90;;;;;;4387897;32;20094;-77
2024/01/11 04:02:07;;;;;;;0.40;0.40;;;-5.30;99.90;;;;;;4388771;32;20078;-77
2024/01/11 04:04:33;;;;;;;3.25;2.60;;;-5.40;99.90;;;;;;4387972;32;20377;-76
2024/01/11 04:06:58;;;;;;;0.50;0.50;;;-5.40;99.90;;;;;;4383712;32;21869;-77
2024/01/11 04:09:24;;;;;;;0.50;0.50;;;-5.30;99.90;;;;;;4385327;32;20403;-77
2024/01/11 04:11:49;;;;;;;0.50;0.50;;;-5.20;99.90;;;;;;4386303;32;21097;-76
2024/01/11 04:14:15;;;;;;;0.40;0.40;;;-5.00;99.90;;;;;;4386496;32;20082;-77
2024/01/11 04:16:42;;;;;;;0.43;0.43;;;-4.90;99.90;;;;;;4388532;32;20082;-77
2024/01/11 04:19:07;;;;;;;0.50;0.50;;;-4.90;99.90;;;;;;4385387;32;20416;-77
2024/01/11 04:21:33;;;;;;;0.70;0.68;;;-4.90;99.90;;;;;;4385347;32;20069;-77
2024/01/11 04:23:59;;;;;;;0.50;0.50;;;-4.80;99.90;;;;;;4386873;32;20080;-77
2024/01/11 04:26:25;;;;;;;0.55;0.55;;;-4.80;99.90;;;;;;4386613;32;20063;-77
2024/01/11 04:28:52;;;;;;;0.50;0.50;;;-4.80;99.90;;;;;;4386763;32;20107;-77
2024/01/11 04:31:18;;;;;;;0.40;0.40;;;-4.90;99.90;;;;;;4389561;32;20439;-77
2024/01/11 04:33:45;;;;;;;0.40;0.40;;;-4.90;99.90;;;;;;4388379;32;20093;-76
2024/01/11 04:36:10;;;;;;;0.50;0.50;;;-4.80;99.90;;;;;;4388779;32;20153;-77
2024/01/11 04:38:37;;;;;;;0.70;0.70;;;-4.80;99.90;;;;;;4387635;32;20126;-76
2024/01/11 04:41:11;;;;;;;0.65;0.65;;;-4.70;99.90;;;;;;4388913;32;20078;-77
2024/01/11 04:43:39;;;;;;;0.50;0.50;;;-4.70;99.90;;;;;;4384991;32;20103;-77
2024/01/11 04:46:14;;;;;;;0.50;0.50;;;-4.70;99.90;;;;;;4388943;32;20075;-77
2024/01/11 04:48:40;;;;;;;0.70;0.70;;;-4.60;99.90;;;;;;4387743;32;20086;-77
2024/01/11 04:51:06;;;;;;;0.40;0.40;;;-4.60;99.90;;;;;;4387376;32;20086;-77
2024/01/11 04:53:31;;;;;;;0.55;0.55;;;-4.60;99.90;;;;;;4386526;32;20078;-77
2024/01/11 04:55:57;;;;;;;0.50;0.50;;;-4.50;99.90;;;;;;4390354;32;20073;-77
2024/01/11 04:58:22;;;;;;;0.45;0.45;;;-4.40;99.90;;;;;;4394095;32;20069;-77
2024/01/11 05:00:48;;;;;;;0.40;0.40;;;-4.40;99.90;;;;;;4392407;32;20464;-77
2024/01/11 05:03:14;;;;;;;0.40;0.40;;;-4.30;99.90;;;;;;4389894;32;20084;-77
2024/01/11 05:05:39;;;;;;;0.60;0.60;;;-4.30;99.90;;;;;;4391414;32;20126;-77
2024/01/11 05:08:05;;;;;;;0.50;0.50;;;-4.30;99.90;;;;;;4384675;32;20065;-77
2024/01/11 05:10:30;;;;;;;3.92;1.27;;;-4.10;99.90;;;;;;4386035;32;20129;-76
2024/01/11 05:12:56;;;;;;;1.33;1.25;;;-4.20;99.90;;;;;;4386577;32;20181;-77
2024/01/11 05:15:21;;;;;;;0.57;0.57;;;-4.20;99.90;;;;;;4389112;32;20075;-77
2024/01/11 05:17:47;;;;;;;1.95;1.35;;;-4.30;99.90;;;;;;4388383;32;20082;-77
2024/01/11 05:20:12;;;;;;;0.80;0.80;;;-4.30;99.90;;;;;;4386172;32;20335;-77
2024/01/11 05:22:38;;;;;;;0.50;0.50;;;-4.30;99.90;;;;;;4381139;32;20374;-77
2024/01/11 05:25:04;;;;;;;0.40;0.40;;;-4.30;99.90;;;;;;4391091;32;20081;-76
2024/01/11 05:27:29;;;;;;;0.40;0.40;;;-4.20;99.90;;;;;;4388870;32;20130;-77
2024/01/11 05:29:55;;;;;;;0.40;0.40;;;-4.20;99.90;;;;;;4393035;32;20089;-77
2024/01/11 05:32:20;;;;;;;0.40;0.40;;;-4.10;99.90;;;;;;4388428;32;20087;-77
2024/01/11 05:34:45;;;;;;;1.10;0.88;;;-4.10;99.90;;;;;;4389520;32;20066;-77
2024/01/11 05:37:11;;;;;;;0.45;0.45;;;-4.10;99.90;;;;;;4386227;32;20556;-77
2024/01/11 05:39:36;;;;;;;1.95;0.98;;;-4.00;99.90;;;;;;4388046;32;20087;-77
2024/01/11 05:42:02;;;;;;;0.65;0.65;;;-4.00;99.90;;;;;;4389241;32;20133;-77
2024/01/11 05:44:28;;;;;;;0.50;0.50;;;-3.90;99.90;;;;;;4392639;32;20102;-77
2024/01/11 05:46:53;;;;;;;0.60;0.60;;;-3.90;99.90;;;;;;4389247;32;20085;-77
2024/01/11 05:49:18;;;;;;;1.08;1.02;;;-3.90;99.90;;;;;;4390866;32;20078;-77
2024/01/11 05:51:44;;;;;;;0.70;0.70;;;-3.80;99.90;;;;;;4386043;32;20423;-77
2024/01/11 05:54:10;;;;;;;0.50;0.50;;;-3.70;99.90;;;;;;4392455;32;20066;-77
2024/01/11 05:56:35;;;;;;;0.40;0.40;;;-3.70;99.90;;;;;;4387569;32;20069;-77
2024/01/11 05:59:01;;;;;;;0.40;0.40;;;-3.70;99.90;;;;;;4383953;32;20086;-78
2024/01/11 06:01:26;;;;;;;0.60;0.60;;;-3.70;99.90;;;;;;4382158;32;21460;-78
2024/01/11 06:03:53;;;;;;;1.08;0.98;;;-3.70;99.90;;;;;;4384592;32;20114;-78
2024/01/11 06:06:19;;;;;;;0.32;0.32;;;-3.60;99.90;;;;;;4369558;32;20098;-78
2024/01/11 06:08:44;;;;;;;0.50;0.50;;;-3.70;99.90;;;;;;4380264;32;20077;-78
2024/01/11 06:11:10;;;;;;;0.93;0.93;;;-3.60;99.90;;;;;;4381898;32;20148;-79
2024/01/11 06:13:36;;;;;;;0.82;0.82;;;-3.60;99.90;;;;;;4369130;32;20471;-79
2024/01/11 06:16:01;;;;;;;0.40;0.40;;;-3.70;99.90;;;;;;4379872;32;20101;-79
2024/01/11 06:18:30;;;;;;;0.40;0.40;;;-3.60;99.90;;;;;;4376734;32;20109;-76
2024/01/11 06:20:56;;;;;;;1.55;1.05;;;-3.60;99.90;;;;;;4366049;32;20495;-76
2024/01/11 06:23:22;;;;;;;0.50;0.50;;;-3.50;99.90;;;;;;4375525;32;20082;-79
2024/01/11 06:25:49;;;;;;;0.90;0.90;;;-3.50;99.90;;;;;;4374292;32;20077;-77
2024/01/11 06:28:15;;;;;;;1.00;0.73;;;-3.50;99.90;;;;;;4367300;32;20305;-79
2024/01/11 06:30:42;;;;;;;0.40;0.40;;;-3.40;99.90;;;;;;4374918;32;20830;-79
2024/01/11 06:33:08;;;;;;;0.40;0.40;;;-3.50;99.90;;;;;;4370993;32;20086;-78
2024/01/11 06:35:35;;;;;;;0.45;0.45;;;-3.50;99.90;;;;;;4377293;32;20094;-79
2024/01/11 06:38:00;;;;;;;0.40;0.40;;;-3.50;99.90;;;;;;4364343;32;20319;-78
2024/01/11 06:40:26;;;;;;;0.60;0.60;;;-3.40;99.90;;;;;;4367872;32;20498;-77
2024/01/11 06:42:51;;;;;;;0.40;0.40;;;-3.30;99.90;;;;;;4371188;32;20086;-79
2024/01/11 06:45:17;;;;;;;0.57;0.57;;;-3.30;99.90;;;;;;4371191;32;20557;-77
2024/01/11 06:47:45;;;;;;;0.60;0.60;;;-3.30;99.90;;;;;;4363035;32;20110;-76
2024/01/11 06:50:12;;;;;;;0.55;0.55;;;-3.30;99.90;;;;;;4366215;32;20098;-78
2024/01/11 06:52:38;;;;;;;0.75;0.75;;;-3.40;99.90;;;;;;4364301;32;20086;-78
2024/01/11 06:55:04;;;;;;;0.50;0.50;;;-3.40;99.90;;;;;;4365137;32;20126;-78
2024/01/11 06:57:30;;;;;;;0.43;0.43;;;-3.30;99.90;;;;;;4355029;32;20626;-79
2024/01/11 06:59:56;;;;;;;0.70;0.70;;;-3.20;99.90;;;;;;4350109;32;20106;-79
2024/01/11 07:02:21;;;;;;;1.70;1.48;;;-3.30;99.90;;;;;;4358478;32;20217;-78
2024/01/11 07:04:47;;;;;;;0.62;0.62;;;-3.20;99.90;;;;;;4349661;32;20260;-78
2024/01/11 07:07:13;;;;;;;2.40;1.85;;;-3.10;99.90;;;;;;4348533;32;20186;-77
2024/01/11 07:09:38;;;;;;;10.25;1.12;;;-3.10;99.90;;;;;;4338196;32;20114;-78
2024/01/11 07:12:05;;;;;;;0.73;0.73;;;-3.20;99.90;;;;;;4346785;32;20103;-77
2024/01/11 07:14:32;;;;;;;0.55;0.55;;;-3.10;99.90;;;;;;4347011;32;20821;-77
2024/01/11 07:16:58;;;;;;;0.47;0.47;;;-3.10;99.90;;;;;;4353074;32;20102;-77
2024/01/11 07:19:24;;;;;;;1.87;1.70;;;-3.10;99.90;;;;;;4358137;32;20999;-78
2024/01/11 07:21:49;;;;;;;0.47;0.47;;;-3.10;99.90;;;;;;4349476;32;20289;-77
2024/01/11 07:24:15;;;;;;;2.42;1.02;;;-3.00;99.90;;;;;;4358675;32;20149;-79
2024/01/11 07:26:41;;;;;;;0.47;0.47;;;-3.10;99.90;;;;;;4337091;32;20124;-76
2024/01/11 07:29:07;;;;;;;0.70;0.70;;;-3.10;99.90;;;;;;4340452;32;20122;-77
2024/01/11 07:31:32;;;;;;;0.88;0.88;;;-3.10;99.90;;;;;;4349171;32;20103;-78
2024/01/11 07:33:58;;;;;;;0.70;0.70;;;-3.10;99.90;;;;;;4356886;32;20145;-77
2024/01/11 07:36:23;;;;;;;0.40;0.40;;;-3.00;99.90;;;;;;4354320;32;20533;-76
2024/01/11 07:38:50;;;;;;;1.08;1.08;;;-3.00;99.90;;;;;;4351919;32;20078;-77
2024/01/11 07:41:16;;;;;;;0.65;0.65;;;-2.90;99.90;;;;;;4350822;32;20143;-80
2024/01/11 07:43:41;;;;;;;0.60;0.60;;;-2.80;99.90;;;;;;4353517;32;20078;-79
2024/01/11 07:46:07;;;;;;;1.58;0.90;;;-2.80;99.90;;;;;;4357316;32;20092;-78
2024/01/11 07:48:33;;;;;;;0.80;0.80;;;-2.80;99.90;;;;;;4351091;32;20558;-77
2024/01/11 07:50:59;;;;;;;0.30;0.30;;;-2.70;99.90;;;;;;4345725;32;20165;-77
2024/01/11 07:53:25;;;;;;;0.40;0.40;;;-2.70;99.90;;;;;;4343930;32;20098;-79
2024/01/11 07:55:51;;;;;;;0.73;0.73;;;-2.70;99.90;;;;;;4346754;32;20090;-77
2024/01/11 07:58:17;;;;;;;0.57;0.57;;;-2.70;99.90;;;;;;4351191;32;20392;-77
2024/01/11 08:00:42;;;;;;;10.32;2.45;;;-2.70;99.90;;;;;;4354214;32;20498;-79
2024/01/11 08:03:09;;;;;;;0.52;0.52;;;-2.60;99.90;;;;;;4345073;32;20074;-78
2024/01/11 08:05:35;;;;;;;0.45;0.45;;;-2.60;99.90;;;;;;4346366;32;20158;-79
2024/01/11 08:08:03;;;;;;;2.75;1.77;;;-2.60;99.90;;;;;;4366014;32;20282;-79
2024/01/11 08:10:30;;;;;;;6.93;2.25;;;-2.60;99.90;;;;;;4363481;32;20095;-77
2024/01/11 08:12:56;;;;;;;1.00;0.98;;;-2.70;99.90;;;;;;4354326;32;20561;-76
2024/01/11 08:15:22;;;;;;;2.03;1.08;;;-2.60;99.90;;;;;;4351874;32;20097;-78
2024/01/11 08:17:48;;;;;;;1.60;1.50;;;-2.60;99.90;;;;;;4357344;32;20201;-80
2024/01/11 08:20:15;;;;;;;8.75;1.50;;;-2.70;99.90;;;;;;4352918;32;20099;-79
2024/01/11 08:22:43;;;;;;;2.15;1.52;;;-2.50;99.90;;;;;;4353889;32;20861;-78
2024/01/11 08:25:09;;;;;;;1.10;0.95;;;-2.50;99.90;;;;;;4337097;32;20117;-81
2024/01/11 08:27:35;;;;;;;0.50;0.50;;;-2.50;99.90;;;;;;4353394;32;20622;-77
2024/01/11 08:30:02;;;;;;;0.40;0.40;;;-2.40;99.90;;;;;;4341117;32;20641;-76
2024/01/11 08:32:28;;;;;;;0.65;0.65;;;-2.40;99.90;;;;;;4341333;32;20109;-77
2024/01/11 08:34:54;;;;;;;0.77;0.77;;;-2.50;99.90;;;;;;4355470;32;20094;-78
2024/01/11 08:37:19;;;;;;;0.73;0.70;;;-2.50;99.90;;;;;;4349747;32;20424;-77
2024/01/11 08:39:46;;;;;;;0.70;0.70;;;-2.50;99.90;;;;;;4347369;32;20067;-78
2024/01/11 08:42:12;;;;;;;0.50;0.50;;;-2.40;99.90;;;;;;4355966;32;20105;-79
2024/01/11 08:44:42;;;;;;;0.90;0.90;;;-2.40;99.90;;;;;;4364913;32;20157;-78
2024/01/11 08:47:09;;;;;;;0.50;0.50;;;-2.30;99.90;;;;;;4345552;32;20156;-77
2024/01/11 08:49:36;;;;;;;2.05;1.62;;;-2.30;99.90;;;;;;4352043;32;20086;-77
2024/01/11 08:52:02;;;;;;;0.82;0.82;;;-2.30;99.90;;;;;;4350146;32;20102;-77
2024/01/11 08:54:28;;;;;;;0.50;0.50;;;-2.20;99.90;;;;;;4354438;32;20094;-77
2024/01/11 08:56:53;;;;;;;0.88;0.88;;;-2.40;99.90;;;;;;4342415;32;20090;-78
2024/01/11 08:59:19;;;;;;;0.50;0.50;;;-2.40;99.90;;;;;;4343278;32;20083;-76
2024/01/11 09:04:10;;;;;;;0.40;0.40;;;-2.40;99.90;;;;;;4351737;32;20774;-77
2024/01/11 09:06:36;;;;;;;0.90;0.90;;;-2.40;99.90;;;;;;4342970;32;20124;-76
2024/01/11 09:09:01;;;;;;;0.50;0.50;;;-2.30;99.90;;;;;;4347207;32;20090;-76
2024/01/11 09:11:27;;;;;;;0.52;0.52;;;-2.30;99.90;;;;;;4346455;32;20093;-77
2024/01/11 09:13:53;;;;;;;0.40;0.40;;;-2.30;99.90;;;;;;4347749;32;20134;-76
2024/01/11 09:16:18;;;;;;;0.50;0.50;;;-2.20;99.90;;;;;;4351544;32;20369;-76
2024/01/11 09:18:44;;;;;;;0.50;0.50;;;-2.20;99.90;;;;;;4346842;32;20209;-76
2024/01/11 09:21:12;;;;;;;0.82;0.82;;;-2.30;99.90;;;;;;4346958;32;20723;-76
2024/01/11 09:23:37;;;;;;;1.75;1.30;;;-2.30;99.90;;;;;;4342471;32;20086;-75
2024/01/11 09:26:03;;;;;;;1.33;1.23;;;-2.30;99.90;;;;;;4345900;32;20110;-76
2024/01/11 09:28:29;;;;;;;1.05;1.05;;;-2.40;99.90;;;;;;4352942;32;20093;-76
2024/01/11 09:30:59;;;;;;;0.40;0.40;;;-2.50;99.90;;;;;;4349754;32;21300;-76
2024/01/11 09:33:26;;;;;;;2.65;1.23;;;-2.50;99.90;;;;;;4354112;32;20883;-77
2024/01/11 09:35:51;;;;;;;0.50;0.50;;;-2.70;99.90;;;;;;4354486;32;20109;-77
2024/01/11 09:38:17;;;;;;;0.43;0.43;;;-2.70;99.90;;;;;;4338946;32;20086;-77
2024/01/11 09:40:43;;;;;;;0.70;0.70;;;-2.60;99.90;;;;;;4353203;32;20110;-77
2024/01/11 09:43:10;;;;;;;0.57;0.57;;;-2.50;99.90;;;;;;4344172;32;20322;-77
2024/01/11 09:45:37;;;;;;;0.50;0.50;;;-2.50;99.90;;;;;;4345695;32;20893;-77
2024/01/11 09:48:05;;;;;;;0.40;0.40;;;-2.50;99.90;;;;;;4344207;32;20580;-76
2024/01/11 09:50:31;;;;;;;0.93;0.88;;;-2.50;99.90;;;;;;4352455;32;20098;-76
2024/01/11 09:52:58;;;;;;;0.50;0.50;;;-2.40;99.90;;;;;;4353918;32;20546;-76
2024/01/11 09:55:23;;;;;;;0.40;0.40;;;-2.40;99.90;;;;;;4352252;32;20105;-77
2024/01/11 09:57:54;;;;;;;0.60;0.60;;;-2.30;99.90;;;;;;4350012;32;20735;-76
2024/01/11 10:00:23;;;;;;;0.50;0.50;;;-2.20;99.90;;;;;;4354303;32;20090;-78
2024/01/11 10:02:51;;;;;;;0.40;0.40;;;-2.20;99.90;;;;;;4350519;32;20853;-77
2024/01/11 10:05:18;;;;;;;0.50;0.50;;;-2.20;99.90;;;;;;4350330;32;20161;-78
2024/01/11 10:07:45;;;;;;;0.73;0.73;;;-2.20;99.90;;;;;;4358933;32;20790;-79
2024/01/11 10:10:15;;;;;;;0.90;0.85;;;-2.10;99.90;;;;;;4349185;32;20114;-76
2024/01/11 10:12:40;;;;;;;1.40;1.30;;;-2.20;99.90;;;;;;4350317;32;20841;-78
2024/01/11 10:15:09;;;;;;;0.52;0.52;;;-2.20;99.90;;;;;;4354272;32;20102;-77
2024/01/11 10:17:41;;;;;;;0.50;0.50;;;-2.20;99.90;;;;;;4343035;32;20209;-74
2024/01/11 10:20:10;;;;;;;0.40;0.40;;;-2.10;99.90;;;;;;4331399;32;20637;-75
2024/01/11 10:22:36;;;;;;;0.40;0.40;;;-2.10;99.90;;;;;;4351514;32;20620;-77
2024/01/11 10:25:17;;;;;;;6.43;1.75;;;-2.10;99.90;;;;;;4355309;32;20413;-76
2024/01/11 10:27:45;;;;;;;2.20;2.00;;;-2.20;99.90;;;;;;4336101;32;20460;-75
2024/01/11 10:30:16;;;;;;;0.50;0.50;;;-2.30;99.90;;;;;;4352062;32;20652;-76
2024/01/11 10:32:42;;;;;;;0.70;0.70;;;-2.20;99.90;;;;;;4347295;32;20120;-76
2024/01/11 10:35:09;;;;;;;0.60;0.60;;;-2.30;99.90;;;;;;4355055;32;20095;-76
2024/01/11 10:37:38;;;;;;;0.37;0.37;;;-2.40;99.90;;;;;;4350050;32;20826;-77
2024/01/11 10:40:10;;;;;;;0.40;0.40;;;-2.40;99.90;;;;;;4353879;32;20090;-75
2024/01/11 10:42:40;;;;;;;1.67;1.58;;;-2.40;99.90;;;;;;4347197;32;20093;-75
2024/01/11 10:45:14;;;;;;;0.60;0.60;;;-2.40;99.90;;;;;;4358539;32;20695;-74
2024/01/11 10:47:46;;;;;;;0.65;0.65;;;-2.30;99.90;;;;;;4345260;32;20152;-75
2024/01/11 10:50:15;;;;;;;1.12;0.88;;;-2.30;99.90;;;;;;4348422;32;20274;-75
2024/01/11 10:52:54;;;;;;;0.40;0.40;;;-2.30;99.90;;;;;;4346274;32;20194;-75
2024/01/11 10:55:20;;;;;;;0.40;0.40;;;-2.30;99.90;;;;;;4340975;32;20094;-78
2024/01/11 10:57:49;;;;;;;0.52;0.52;;;-2.20;99.90;;;;;;4351062;32;20086;-76
2024/01/11 11:00:16;;;;;;;0.95;0.95;;;-2.20;99.90;;;;;;4356541;32;20071;-76
2024/01/11 11:02:43;;;;;;;0.43;0.43;;;-2.10;99.90;;;;;;4359684;32;20397;-76
2024/01/11 11:05:12;;;;;;;0.50;0.50;;;-2.00;99.90;;;;;;4358478;32;20131;-76
2024/01/11 11:07:39;;;;;;;0.73;0.73;;;-1.90;99.90;;;;;;4352192;32;20213;-76
2024/01/11 11:10:08;;;;;;;1.52;1.27;;;-1.90;99.90;;;;;;4343336;32;20091;-76
2024/01/11 11:12:36;;;;;;;0.70;0.70;;;-1.80;99.90;;;;;;4340456;32;20102;-76
2024/01/11 11:15:06;;;;;;;1.20;1.10;;;-1.80;99.90;;;;;;4347702;32;20094;-75
2024/01/11 11:17:31;;;;;;;0.62;0.62;;;-1.70;99.90;;;;;;4348455;32;20109;-76
2024/01/11 11:19:57;;;;;;;0.75;0.75;;;-1.70;99.90;;;;;;4348586;32;20066;-76
2024/01/11 11:22:26;;;;;;;0.40;0.40;;;-1.60;99.90;;;;;;4347302;32;20370;-77
2024/01/11 11:25:05;;;;;;;0.70;0.70;;;-1.60;99.90;;;;;;4351338;32;20945;-77
2024/01/11 11:27:31;;;;;;;2.62;0.98;;;-1.60;99.90;;;;;;4357881;32;20602;-77
2024/01/11 11:29:57;;;;;;;1.85;1.67;;;-1.60;99.90;;;;;;4354045;32;20078;-77
2024/01/11 11:32:43;;;;;;;1.50;1.40;;;-1.60;99.90;;;;;;4361448;32;20078;-77
2024/01/11 11:35:14;;;;;;;11.40;1.98;;;-1.50;99.90;;;;;;4360347;32;20109;-79
2024/01/11 11:37:40;;;;;;;0.60;0.60;;;-1.50;99.90;;;;;;4363618;32;20112;-78
2024/01/11 11:40:10;;;;;;;0.40;0.40;;;-1.40;99.90;;;;;;4367136;32;20094;-80
2024/01/11 11:42:37;;;;;;;2.42;1.33;;;-1.40;99.90;;;;;;4377719;32;20242;-78
2024/01/11 11:45:03;;;;;;;0.55;0.55;;;-1.30;99.90;;;;;;4373635;32;20748;-79
2024/01/11 11:47:35;;;;;;;0.65;0.65;;;-1.30;99.90;;;;;;4371784;32;20135;-78
2024/01/11 11:50:17;;;;;;;0.43;0.43;;;-1.30;99.90;;;;;;4399862;27;20294;-63
2024/01/11 11:52:44;;;;;;;0.62;0.60;;;-1.30;99.90;;;;;;4365635;32;82386;-62
2024/01/11 11:55:12;;;;;;;0.93;0.93;;;-1.20;99.90;;;;;;4367081;32;20215;-63
2024/01/11 11:57:38;;;;;;;1.15;0.98;;;-1.20;99.90;;;;;;4357361;32;20826;-65
2024/01/11 12:00:05;;;;;;;0.50;0.50;;;-1.20;99.90;;;;;;4369749;32;20175;-64
2024/01/11 12:02:31;;;;;;;0.70;0.70;;;-1.20;99.90;;;;;;4358126;32;20510;-64
2024/01/11 12:04:57;;;;;;;0.40;0.40;;;-1.20;99.90;;;;;;4377028;32;20122;-65
2024/01/11 12:07:24;;;;;;;0.43;0.43;;;-1.20;99.90;;;;;;4361960;32;21163;-64
2024/01/11 12:09:51;;;;;;;0.50;0.50;;;-1.20;99.90;;;;;;4370135;32;20086;-63
2024/01/11 12:12:20;;;;;;;10.20;1.55;;;-1.20;99.90;;;;;;4367647;32;21031;-64
2024/01/11 12:14:48;;;;;;;0.95;0.93;;;-1.30;99.90;;;;;;4375502;32;20122;-65
2024/01/11 12:17:14;;;;;;;0.50;0.50;;;-1.30;99.90;;;;;;4376534;32;20160;-63
2024/01/11 12:19:39;;;;;;;0.82;0.82;;;-1.30;99.90;;;;;;4373516;32;20078;-64
2024/01/11 12:22:05;;;;;;;1.12;0.73;;;-1.30;99.90;;;;;;4374917;32;20499;-64
2024/01/11 12:24:32;;;;;;;1.58;1.33;;;-1.30;99.90;;;;;;4372517;32;20086;-65
2024/01/11 12:26:59;;;;;;;18.42;1.42;;;-1.30;99.90;;;;;;4362346;32;21437;-63
2024/01/11 12:29:24;;;;;;;0.47;0.47;;;-1.40;99.90;;;;;;4366256;32;20137;-63
2024/01/11 12:31:51;;;;;;;1.17;0.93;;;-1.30;99.90;;;;;;4362805;32;20102;-64
2024/01/11 12:34:17;;;;;;;2.53;0.70;;;-1.30;99.90;;;;;;4343243;32;20086;-65
2024/01/11 12:36:42;;;;;;;2.75;1.42;;;-1.30;99.90;;;;;;4360467;32;20129;-65
2024/01/11 12:39:10;;;;;;;1.20;1.20;;;-1.30;99.90;;;;;;4358228;32;20557;-64
2024/01/11 12:41:36;;;;;;;0.52;0.52;;;-1.20;99.90;;;;;;4363270;32;20094;-65
2024/01/11 12:44:02;;;;;;;0.85;0.82;;;-1.20;99.90;;;;;;4356399;32;20410;-64